sensor_id;sensor_type;location;lat;lon;timestamp;P1;durP1;ratioP1;P2;durP2;ratioP2
75550;SDS011;65071;53.082;18.218;2023-07-31T00:02:07;3.40;;;1.60;;
75550;SDS011;65071;53.082;18.218;2023-07-31T00:04:34;1.90;;;1.40;;
75550;SDS011;65071;53.082;18.218;2023-07-31T00:07:00;2.40;;;1.60;;
75550;SDS011;65071;53.082;18.218;2023-07-31T00:09:30;1.60;;;1.40;;
75550;SDS011;65071;53.082;18.218;2023-07-31T00:11:57;1.90;;;1.30;;
75550;SDS011;65071;53.082;18.218;2023-07-31T00:14:23;2.10;;;1.50;;
75550;SDS011;65071;53.082;18.218;2023-07-31T00:16:50;2.70;;;1.30;;
75550;SDS011;65071;53.082;18.218;2023-07-31T00:19:16;2.40;;;1.60;;
75550;SDS011;65071;53.082;18.218;2023-07-31T00:21:43;3.10;;;1.90;;
75550;SDS011;65071;53.082;18.218;2023-07-31T00:24:10;2.60;;;1.60;;
75550;SDS011;65071;53.082;18.218;2023-07-31T00:26:37;2.40;;;1.50;;
75550;SDS011;65071;53.082;18.218;2023-07-31T00:29:04;2.00;;;1.50;;
75550;SDS011;65071;53.082;18.218;2023-07-31T00:31:31;5.40;;;1.80;;
75550;SDS011;65071;53.082;18.218;2023-07-31T00:33:57;2.60;;;1.40;;
75550;SDS011;65071;53.082;18.218;2023-07-31T00:36:24;4.20;;;1.50;;
75550;SDS011;65071;53.082;18.218;2023-07-31T00:38:50;3.30;;;1.40;;
75550;SDS011;65071;53.082;18.218;2023-07-31T00:41:16;1.80;;;1.40;;
75550;SDS011;65071;53.082;18.218;2023-07-31T00:43:43;3.00;;;1.90;;
75550;SDS011;65071;53.082;18.218;2023-07-31T00:46:09;3.60;;;1.80;;
75550;SDS011;65071;53.082;18.218;2023-07-31T00:48:36;2.20;;;1.70;;
75550;SDS011;65071;53.082;18.218;2023-07-31T00:51:04;2.00;;;1.80;;
75550;SDS011;65071;53.082;18.218;2023-07-31T00:53:31;2.60;;;1.70;;
75550;SDS011;65071;53.082;18.218;2023-07-31T00:55:58;3.40;;;1.90;;
75550;SDS011;65071;53.082;18.218;2023-07-31T00:58:25;3.20;;;1.60;;
75550;SDS011;65071;53.082;18.218;2023-07-31T01:00:52;2.40;;;1.50;;
75550;SDS011;65071;53.082;18.218;2023-07-31T01:03:19;2.70;;;1.50;;
75550;SDS011;65071;53.082;18.218;2023-07-31T01:05:49;1.50;;;1.20;;
75550;SDS011;65071;53.082;18.218;2023-07-31T01:08:32;2.60;;;1.70;;
75550;SDS011;65071;53.082;18.218;2023-07-31T01:11:14;2.00;;;1.50;;
75550;SDS011;65071;53.082;18.218;2023-07-31T01:13:44;4.30;;;1.80;;
75550;SDS011;65071;53.082;18.218;2023-07-31T01:16:11;4.20;;;1.70;;
75550;SDS011;65071;53.082;18.218;2023-07-31T01:18:38;2.70;;;1.50;;
75550;SDS011;65071;53.082;18.218;2023-07-31T01:21:41;2.30;;;1.50;;
75550;SDS011;65071;53.082;18.218;2023-07-31T01:27:09;5.30;;;1.70;;
75550;SDS011;65071;53.082;18.218;2023-07-31T01:29:43;3.30;;;1.70;;
75550;SDS011;65071;53.082;18.218;2023-07-31T01:32:28;2.50;;;1.70;;
75550;SDS011;65071;53.082;18.218;2023-07-31T01:34:56;4.70;;;1.70;;
75550;SDS011;65071;53.082;18.218;2023-07-31T01:37:28;1.70;;;1.60;;
75550;SDS011;65071;53.082;18.218;2023-07-31T01:39:56;2.40;;;1.80;;
75550;SDS011;65071;53.082;18.218;2023-07-31T01:42:22;2.90;;;2.00;;
75550;SDS011;65071;53.082;18.218;2023-07-31T01:44:50;1.90;;;1.70;;
75550;SDS011;65071;53.082;18.218;2023-07-31T01:47:17;3.60;;;2.00;;
75550;SDS011;65071;53.082;18.218;2023-07-31T01:49:43;2.30;;;1.70;;
75550;SDS011;65071;53.082;18.218;2023-07-31T01:52:10;4.00;;;1.80;;
75550;SDS011;65071;53.082;18.218;2023-07-31T01:54:37;2.30;;;1.60;;
75550;SDS011;65071;53.082;18.218;2023-07-31T01:57:03;2.20;;;1.70;;
75550;SDS011;65071;53.082;18.218;2023-07-31T01:59:30;2.00;;;1.70;;
75550;SDS011;65071;53.082;18.218;2023-07-31T02:01:56;2.60;;;1.80;;
75550;SDS011;65071;53.082;18.218;2023-07-31T02:04:23;3.70;;;1.60;;
75550;SDS011;65071;53.082;18.218;2023-07-31T02:06:50;3.40;;;1.80;;
75550;SDS011;65071;53.082;18.218;2023-07-31T02:09:16;3.10;;;1.90;;
75550;SDS011;65071;53.082;18.218;2023-07-31T02:11:43;2.20;;;1.60;;
75550;SDS011;65071;53.082;18.218;2023-07-31T02:14:10;3.40;;;1.70;;
75550;SDS011;65071;53.082;18.218;2023-07-31T02:16:36;2.20;;;1.70;;
75550;SDS011;65071;53.082;18.218;2023-07-31T02:19:03;3.10;;;1.90;;
75550;SDS011;65071;53.082;18.218;2023-07-31T02:21:29;2.40;;;1.80;;
75550;SDS011;65071;53.082;18.218;2023-07-31T02:23:56;2.90;;;1.70;;
75550;SDS011;65071;53.082;18.218;2023-07-31T02:26:22;3.50;;;2.00;;
75550;SDS011;65071;53.082;18.218;2023-07-31T02:28:49;1.90;;;1.60;;
75550;SDS011;65071;53.082;18.218;2023-07-31T02:31:15;2.90;;;1.70;;
75550;SDS011;65071;53.082;18.218;2023-07-31T02:33:42;2.70;;;2.10;;
75550;SDS011;65071;53.082;18.218;2023-07-31T02:36:09;2.60;;;1.80;;
75550;SDS011;65071;53.082;18.218;2023-07-31T02:38:36;2.80;;;1.90;;
75550;SDS011;65071;53.082;18.218;2023-07-31T02:41:02;3.00;;;2.20;;
75550;SDS011;65071;53.082;18.218;2023-07-31T02:43:29;2.80;;;2.00;;
75550;SDS011;65071;53.082;18.218;2023-07-31T02:45:56;3.10;;;2.00;;
75550;SDS011;65071;53.082;18.218;2023-07-31T02:48:24;5.70;;;2.20;;
75550;SDS011;65071;53.082;18.218;2023-07-31T02:50:50;5.50;;;1.90;;
75550;SDS011;65071;53.082;18.218;2023-07-31T02:53:17;3.90;;;2.30;;
75550;SDS011;65071;53.082;18.218;2023-07-31T02:55:44;4.20;;;2.30;;
75550;SDS011;65071;53.082;18.218;2023-07-31T02:58:10;3.90;;;2.30;;
75550;SDS011;65071;53.082;18.218;2023-07-31T03:00:41;2.80;;;2.10;;
75550;SDS011;65071;53.082;18.218;2023-07-31T03:03:09;2.30;;;2.10;;
75550;SDS011;65071;53.082;18.218;2023-07-31T03:05:36;3.80;;;2.40;;
75550;SDS011;65071;53.082;18.218;2023-07-31T03:08:03;3.00;;;2.20;;
75550;SDS011;65071;53.082;18.218;2023-07-31T03:10:30;3.00;;;2.50;;
75550;SDS011;65071;53.082;18.218;2023-07-31T03:12:56;3.90;;;2.20;;
75550;SDS011;65071;53.082;18.218;2023-07-31T03:15:23;3.30;;;2.00;;
75550;SDS011;65071;53.082;18.218;2023-07-31T03:17:49;3.80;;;2.20;;
75550;SDS011;65071;53.082;18.218;2023-07-31T03:20:16;3.50;;;2.20;;
75550;SDS011;65071;53.082;18.218;2023-07-31T03:22:43;3.20;;;2.30;;
75550;SDS011;65071;53.082;18.218;2023-07-31T03:25:09;4.00;;;1.90;;
75550;SDS011;65071;53.082;18.218;2023-07-31T03:27:36;5.00;;;2.10;;
75550;SDS011;65071;53.082;18.218;2023-07-31T03:30:03;2.40;;;2.00;;
75550;SDS011;65071;53.082;18.218;2023-07-31T03:32:30;3.30;;;2.20;;
75550;SDS011;65071;53.082;18.218;2023-07-31T03:34:57;7.00;;;2.50;;
75550;SDS011;65071;53.082;18.218;2023-07-31T03:37:25;4.60;;;2.20;;
75550;SDS011;65071;53.082;18.218;2023-07-31T03:39:52;4.50;;;2.20;;
75550;SDS011;65071;53.082;18.218;2023-07-31T03:42:19;2.70;;;2.00;;
75550;SDS011;65071;53.082;18.218;2023-07-31T03:44:45;2.60;;;1.70;;
75550;SDS011;65071;53.082;18.218;2023-07-31T03:47:12;3.20;;;1.80;;
75550;SDS011;65071;53.082;18.218;2023-07-31T03:49:38;3.00;;;2.10;;
75550;SDS011;65071;53.082;18.218;2023-07-31T03:52:05;3.00;;;2.20;;
75550;SDS011;65071;53.082;18.218;2023-07-31T03:54:31;1.80;;;1.70;;
75550;SDS011;65071;53.082;18.218;2023-07-31T03:56:58;2.30;;;1.80;;
75550;SDS011;65071;53.082;18.218;2023-07-31T03:59:24;4.30;;;1.80;;
75550;SDS011;65071;53.082;18.218;2023-07-31T04:01:51;2.50;;;1.80;;
75550;SDS011;65071;53.082;18.218;2023-07-31T04:04:18;4.30;;;2.00;;
75550;SDS011;65071;53.082;18.218;2023-07-31T04:06:44;5.00;;;2.10;;
75550;SDS011;65071;53.082;18.218;2023-07-31T04:09:11;2.80;;;1.60;;
75550;SDS011;65071;53.082;18.218;2023-07-31T04:11:37;2.60;;;1.80;;
75550;SDS011;65071;53.082;18.218;2023-07-31T04:14:05;2.70;;;1.70;;
75550;SDS011;65071;53.082;18.218;2023-07-31T04:16:31;2.30;;;1.80;;
75550;SDS011;65071;53.082;18.218;2023-07-31T04:18:58;2.70;;;1.80;;
75550;SDS011;65071;53.082;18.218;2023-07-31T04:21:25;3.30;;;1.80;;
75550;SDS011;65071;53.082;18.218;2023-07-31T04:23:51;3.90;;;1.70;;
75550;SDS011;65071;53.082;18.218;2023-07-31T04:26:22;2.50;;;1.60;;
75550;SDS011;65071;53.082;18.218;2023-07-31T04:28:48;2.80;;;1.70;;
75550;SDS011;65071;53.082;18.218;2023-07-31T04:31:15;3.60;;;2.00;;
75550;SDS011;65071;53.082;18.218;2023-07-31T04:33:41;3.50;;;1.70;;
75550;SDS011;65071;53.082;18.218;2023-07-31T04:36:08;2.10;;;1.60;;
75550;SDS011;65071;53.082;18.218;2023-07-31T04:38:34;2.60;;;1.90;;
75550;SDS011;65071;53.082;18.218;2023-07-31T04:41:00;2.50;;;1.80;;
75550;SDS011;65071;53.082;18.218;2023-07-31T04:43:27;4.30;;;2.00;;
75550;SDS011;65071;53.082;18.218;2023-07-31T04:45:53;2.50;;;1.60;;
75550;SDS011;65071;53.082;18.218;2023-07-31T04:48:20;4.00;;;1.90;;
75550;SDS011;65071;53.082;18.218;2023-07-31T04:50:47;2.20;;;1.50;;
75550;SDS011;65071;53.082;18.218;2023-07-31T04:53:13;3.30;;;1.80;;
75550;SDS011;65071;53.082;18.218;2023-07-31T04:55:40;3.30;;;1.70;;
75550;SDS011;65071;53.082;18.218;2023-07-31T04:58:06;5.70;;;1.60;;
75550;SDS011;65071;53.082;18.218;2023-07-31T05:00:33;2.40;;;1.60;;
75550;SDS011;65071;53.082;18.218;2023-07-31T05:02:59;3.60;;;1.70;;
75550;SDS011;65071;53.082;18.218;2023-07-31T05:05:26;3.70;;;1.80;;
75550;SDS011;65071;53.082;18.218;2023-07-31T05:07:53;3.50;;;1.70;;
75550;SDS011;65071;53.082;18.218;2023-07-31T05:10:19;3.50;;;1.60;;
75550;SDS011;65071;53.082;18.218;2023-07-31T05:12:46;5.50;;;1.60;;
75550;SDS011;65071;53.082;18.218;2023-07-31T05:15:12;3.00;;;1.70;;
75550;SDS011;65071;53.082;18.218;2023-07-31T05:17:39;2.30;;;1.60;;
75550;SDS011;65071;53.082;18.218;2023-07-31T05:20:06;2.50;;;1.50;;
75550;SDS011;65071;53.082;18.218;2023-07-31T05:22:32;1.90;;;1.10;;
75550;SDS011;65071;53.082;18.218;2023-07-31T05:24:59;2.50;;;1.50;;
75550;SDS011;65071;53.082;18.218;2023-07-31T05:27:26;3.20;;;1.50;;
75550;SDS011;65071;53.082;18.218;2023-07-31T05:29:52;2.00;;;1.20;;
75550;SDS011;65071;53.082;18.218;2023-07-31T05:32:19;3.30;;;1.40;;
75550;SDS011;65071;53.082;18.218;2023-07-31T05:34:45;2.10;;;1.00;;
75550;SDS011;65071;53.082;18.218;2023-07-31T05:37:12;2.90;;;1.10;;
75550;SDS011;65071;53.082;18.218;2023-07-31T05:39:38;2.00;;;1.10;;
75550;SDS011;65071;53.082;18.218;2023-07-31T05:42:05;2.20;;;1.30;;
75550;SDS011;65071;53.082;18.218;2023-07-31T05:44:31;2.20;;;1.20;;
75550;SDS011;65071;53.082;18.218;2023-07-31T05:46:58;2.70;;;1.40;;
75550;SDS011;65071;53.082;18.218;2023-07-31T05:49:24;2.20;;;1.30;;
75550;SDS011;65071;53.082;18.218;2023-07-31T05:51:51;1.80;;;1.10;;
75550;SDS011;65071;53.082;18.218;2023-07-31T05:54:17;2.20;;;1.30;;
75550;SDS011;65071;53.082;18.218;2023-07-31T05:56:44;3.00;;;1.50;;
75550;SDS011;65071;53.082;18.218;2023-07-31T05:59:11;2.80;;;1.20;;
75550;SDS011;65071;53.082;18.218;2023-07-31T06:01:38;3.50;;;1.40;;
75550;SDS011;65071;53.082;18.218;2023-07-31T06:04:05;3.50;;;1.40;;
75550;SDS011;65071;53.082;18.218;2023-07-31T06:06:32;4.70;;;1.50;;
75550;SDS011;65071;53.082;18.218;2023-07-31T06:08:59;2.70;;;1.20;;
75550;SDS011;65071;53.082;18.218;2023-07-31T06:11:25;2.00;;;1.00;;
75550;SDS011;65071;53.082;18.218;2023-07-31T06:13:52;3.20;;;1.20;;
75550;SDS011;65071;53.082;18.218;2023-07-31T06:16:18;2.10;;;1.40;;
75550;SDS011;65071;53.082;18.218;2023-07-31T06:18:45;1.80;;;1.10;;
75550;SDS011;65071;53.082;18.218;2023-07-31T06:21:11;2.50;;;1.20;;
75550;SDS011;65071;53.082;18.218;2023-07-31T06:23:38;3.40;;;1.50;;
75550;SDS011;65071;53.082;18.218;2023-07-31T06:26:04;2.00;;;1.10;;
75550;SDS011;65071;53.082;18.218;2023-07-31T06:28:31;1.60;;;1.10;;
75550;SDS011;65071;53.082;18.218;2023-07-31T06:30:58;1.90;;;1.10;;
75550;SDS011;65071;53.082;18.218;2023-07-31T06:33:25;2.70;;;1.40;;
75550;SDS011;65071;53.082;18.218;2023-07-31T06:35:51;2.30;;;1.10;;
75550;SDS011;65071;53.082;18.218;2023-07-31T06:38:21;2.00;;;1.20;;
75550;SDS011;65071;53.082;18.218;2023-07-31T06:40:49;2.00;;;1.20;;
75550;SDS011;65071;53.082;18.218;2023-07-31T06:43:16;2.20;;;1.10;;
75550;SDS011;65071;53.082;18.218;2023-07-31T06:45:42;3.30;;;1.20;;
75550;SDS011;65071;53.082;18.218;2023-07-31T06:48:09;2.30;;;1.20;;
75550;SDS011;65071;53.082;18.218;2023-07-31T06:50:35;3.40;;;1.30;;
75550;SDS011;65071;53.082;18.218;2023-07-31T06:53:03;2.70;;;1.20;;
75550;SDS011;65071;53.082;18.218;2023-07-31T06:55:29;2.50;;;1.10;;
75550;SDS011;65071;53.082;18.218;2023-07-31T06:57:56;3.10;;;1.20;;
75550;SDS011;65071;53.082;18.218;2023-07-31T07:00:22;1.80;;;1.20;;
75550;SDS011;65071;53.082;18.218;2023-07-31T07:02:50;1.60;;;1.20;;
75550;SDS011;65071;53.082;18.218;2023-07-31T07:05:17;1.50;;;0.90;;
75550;SDS011;65071;53.082;18.218;2023-07-31T07:07:44;3.90;;;1.20;;
75550;SDS011;65071;53.082;18.218;2023-07-31T07:10:11;2.80;;;1.10;;
75550;SDS011;65071;53.082;18.218;2023-07-31T07:12:37;2.10;;;1.10;;
75550;SDS011;65071;53.082;18.218;2023-07-31T07:15:04;2.20;;;1.10;;
75550;SDS011;65071;53.082;18.218;2023-07-31T07:17:31;2.50;;;1.30;;
75550;SDS011;65071;53.082;18.218;2023-07-31T07:19:57;2.60;;;1.40;;
75550;SDS011;65071;53.082;18.218;2023-07-31T07:22:25;3.00;;;1.30;;
75550;SDS011;65071;53.082;18.218;2023-07-31T07:24:52;2.50;;;1.20;;
75550;SDS011;65071;53.082;18.218;2023-07-31T07:27:19;2.70;;;1.20;;
75550;SDS011;65071;53.082;18.218;2023-07-31T07:29:45;2.00;;;1.20;;
75550;SDS011;65071;53.082;18.218;2023-07-31T07:32:13;2.30;;;1.30;;
75550;SDS011;65071;53.082;18.218;2023-07-31T07:34:39;2.40;;;1.20;;
75550;SDS011;65071;53.082;18.218;2023-07-31T07:37:06;3.00;;;1.40;;
75550;SDS011;65071;53.082;18.218;2023-07-31T07:39:32;2.80;;;1.40;;
75550;SDS011;65071;53.082;18.218;2023-07-31T07:41:59;2.90;;;1.30;;
75550;SDS011;65071;53.082;18.218;2023-07-31T07:44:25;3.70;;;1.20;;
75550;SDS011;65071;53.082;18.218;2023-07-31T07:46:53;2.80;;;1.30;;
75550;SDS011;65071;53.082;18.218;2023-07-31T07:49:19;3.50;;;1.10;;
75550;SDS011;65071;53.082;18.218;2023-07-31T07:51:48;1.30;;;1.00;;
75550;SDS011;65071;53.082;18.218;2023-07-31T07:54:15;2.00;;;1.00;;
75550;SDS011;65071;53.082;18.218;2023-07-31T07:56:47;2.30;;;1.10;;
75550;SDS011;65071;53.082;18.218;2023-07-31T07:59:14;2.60;;;1.00;;
75550;SDS011;65071;53.082;18.218;2023-07-31T08:01:40;2.10;;;1.20;;
75550;SDS011;65071;53.082;18.218;2023-07-31T08:04:07;3.40;;;1.50;;
75550;SDS011;65071;53.082;18.218;2023-07-31T08:06:33;1.80;;;1.20;;
75550;SDS011;65071;53.082;18.218;2023-07-31T08:08:59;2.50;;;1.40;;
75550;SDS011;65071;53.082;18.218;2023-07-31T08:11:34;3.00;;;1.10;;
75550;SDS011;65071;53.082;18.218;2023-07-31T08:14:01;3.50;;;1.40;;
75550;SDS011;65071;53.082;18.218;2023-07-31T08:16:27;2.40;;;1.20;;
75550;SDS011;65071;53.082;18.218;2023-07-31T08:18:54;2.40;;;1.00;;
75550;SDS011;65071;53.082;18.218;2023-07-31T08:21:21;2.10;;;1.20;;
75550;SDS011;65071;53.082;18.218;2023-07-31T08:23:47;2.00;;;0.90;;
75550;SDS011;65071;53.082;18.218;2023-07-31T08:26:17;2.70;;;1.10;;
75550;SDS011;65071;53.082;18.218;2023-07-31T08:28:44;1.70;;;1.00;;
75550;SDS011;65071;53.082;18.218;2023-07-31T08:31:11;2.50;;;0.80;;
75550;SDS011;65071;53.082;18.218;2023-07-31T08:33:38;4.00;;;1.30;;
75550;SDS011;65071;53.082;18.218;2023-07-31T08:36:06;2.10;;;1.10;;
75550;SDS011;65071;53.082;18.218;2023-07-31T08:38:33;2.50;;;1.10;;
75550;SDS011;65071;53.082;18.218;2023-07-31T08:41:00;1.50;;;0.80;;
75550;SDS011;65071;53.082;18.218;2023-07-31T08:43:26;2.60;;;1.00;;
75550;SDS011;65071;53.082;18.218;2023-07-31T08:45:53;2.00;;;0.80;;
75550;SDS011;65071;53.082;18.218;2023-07-31T08:48:23;1.50;;;0.90;;
75550;SDS011;65071;53.082;18.218;2023-07-31T08:50:53;2.20;;;0.80;;
75550;SDS011;65071;53.082;18.218;2023-07-31T08:53:20;1.80;;;1.00;;
75550;SDS011;65071;53.082;18.218;2023-07-31T08:55:47;1.90;;;0.70;;
75550;SDS011;65071;53.082;18.218;2023-07-31T08:58:15;1.70;;;0.80;;
75550;SDS011;65071;53.082;18.218;2023-07-31T09:00:42;3.10;;;0.90;;
75550;SDS011;65071;53.082;18.218;2023-07-31T09:03:13;1.50;;;0.90;;
75550;SDS011;65071;53.082;18.218;2023-07-31T09:05:42;2.60;;;1.10;;
75550;SDS011;65071;53.082;18.218;2023-07-31T09:08:11;1.40;;;0.80;;
75550;SDS011;65071;53.082;18.218;2023-07-31T09:10:42;2.20;;;1.00;;
75550;SDS011;65071;53.082;18.218;2023-07-31T09:13:09;1.60;;;0.90;;
75550;SDS011;65071;53.082;18.218;2023-07-31T09:15:36;3.80;;;1.30;;
75550;SDS011;65071;53.082;18.218;2023-07-31T09:18:04;2.30;;;0.90;;
75550;SDS011;65071;53.082;18.218;2023-07-31T09:20:32;2.10;;;1.10;;
75550;SDS011;65071;53.082;18.218;2023-07-31T09:23:21;1.70;;;0.90;;
75550;SDS011;65071;53.082;18.218;2023-07-31T09:25:48;3.30;;;1.00;;
75550;SDS011;65071;53.082;18.218;2023-07-31T09:28:14;2.00;;;0.90;;
75550;SDS011;65071;53.082;18.218;2023-07-31T09:30:45;2.40;;;1.30;;
75550;SDS011;65071;53.082;18.218;2023-07-31T09:33:16;1.70;;;0.90;;
75550;SDS011;65071;53.082;18.218;2023-07-31T09:35:44;2.80;;;1.10;;
75550;SDS011;65071;53.082;18.218;2023-07-31T09:38:11;2.40;;;1.10;;
75550;SDS011;65071;53.082;18.218;2023-07-31T09:40:41;2.70;;;1.10;;
75550;SDS011;65071;53.082;18.218;2023-07-31T09:43:09;3.40;;;1.00;;
75550;SDS011;65071;53.082;18.218;2023-07-31T09:45:38;2.50;;;1.00;;
75550;SDS011;65071;53.082;18.218;2023-07-31T09:48:09;1.80;;;1.10;;
75550;SDS011;65071;53.082;18.218;2023-07-31T09:50:37;2.70;;;0.80;;
75550;SDS011;65071;53.082;18.218;2023-07-31T09:53:06;2.80;;;1.10;;
75550;SDS011;65071;53.082;18.218;2023-07-31T09:55:33;4.10;;;1.30;;
75550;SDS011;65071;53.082;18.218;2023-07-31T09:58:04;3.30;;;1.00;;
75550;SDS011;65071;53.082;18.218;2023-07-31T10:00:33;2.00;;;1.10;;
75550;SDS011;65071;53.082;18.218;2023-07-31T10:03:00;3.40;;;1.20;;
75550;SDS011;65071;53.082;18.218;2023-07-31T10:05:30;3.30;;;1.20;;
75550;SDS011;65071;53.082;18.218;2023-07-31T10:08:01;2.30;;;1.30;;
75550;SDS011;65071;53.082;18.218;2023-07-31T10:10:29;4.00;;;1.50;;
75550;SDS011;65071;53.082;18.218;2023-07-31T10:12:56;4.20;;;1.50;;
75550;SDS011;65071;53.082;18.218;2023-07-31T10:15:24;2.50;;;1.20;;
75550;SDS011;65071;53.082;18.218;2023-07-31T10:17:52;3.10;;;1.40;;
75550;SDS011;65071;53.082;18.218;2023-07-31T10:20:20;3.40;;;1.50;;
75550;SDS011;65071;53.082;18.218;2023-07-31T10:22:47;3.10;;;1.50;;
75550;SDS011;65071;53.082;18.218;2023-07-31T10:25:15;2.70;;;1.50;;
75550;SDS011;65071;53.082;18.218;2023-07-31T10:27:43;3.90;;;1.50;;
75550;SDS011;65071;53.082;18.218;2023-07-31T10:30:11;3.70;;;1.70;;
75550;SDS011;65071;53.082;18.218;2023-07-31T10:32:41;3.70;;;1.70;;
75550;SDS011;65071;53.082;18.218;2023-07-31T10:35:10;3.40;;;1.50;;
75550;SDS011;65071;53.082;18.218;2023-07-31T10:37:38;2.20;;;1.10;;
75550;SDS011;65071;53.082;18.218;2023-07-31T10:40:12;2.10;;;1.10;;
75550;SDS011;65071;53.082;18.218;2023-07-31T10:42:49;3.70;;;1.90;;
75550;SDS011;65071;53.082;18.218;2023-07-31T10:45:24;5.10;;;1.70;;
75550;SDS011;65071;53.082;18.218;2023-07-31T10:50:56;3.20;;;1.70;;
75550;SDS011;65071;53.082;18.218;2023-07-31T10:53:28;5.80;;;1.90;;
75550;SDS011;65071;53.082;18.218;2023-07-31T10:56:00;3.00;;;1.70;;
75550;SDS011;65071;53.082;18.218;2023-07-31T10:58:28;5.60;;;1.90;;
75550;SDS011;65071;53.082;18.218;2023-07-31T11:00:55;4.80;;;1.70;;
75550;SDS011;65071;53.082;18.218;2023-07-31T11:03:25;3.10;;;1.50;;
75550;SDS011;65071;53.082;18.218;2023-07-31T11:06:00;7.30;;;1.80;;
75550;SDS011;65071;53.082;18.218;2023-07-31T11:08:28;4.10;;;1.30;;
75550;SDS011;65071;53.082;18.218;2023-07-31T11:13:32;3.80;;;1.20;;
75550;SDS011;65071;53.082;18.218;2023-07-31T11:16:05;3.50;;;1.20;;
75550;SDS011;65071;53.082;18.218;2023-07-31T11:18:32;2.90;;;1.40;;
75550;SDS011;65071;53.082;18.218;2023-07-31T11:20:59;3.90;;;1.60;;
75550;SDS011;65071;53.082;18.218;2023-07-31T11:23:25;2.00;;;1.20;;
75550;SDS011;65071;53.082;18.218;2023-07-31T11:25:52;4.00;;;1.30;;
75550;SDS011;65071;53.082;18.218;2023-07-31T11:28:19;4.00;;;1.10;;
75550;SDS011;65071;53.082;18.218;2023-07-31T11:30:45;3.60;;;1.50;;
75550;SDS011;65071;53.082;18.218;2023-07-31T11:33:12;2.40;;;1.00;;
75550;SDS011;65071;53.082;18.218;2023-07-31T11:35:47;3.50;;;1.20;;
75550;SDS011;65071;53.082;18.218;2023-07-31T11:38:28;3.10;;;1.00;;
75550;SDS011;65071;53.082;18.218;2023-07-31T11:40:57;1.30;;;0.90;;
75550;SDS011;65071;53.082;18.218;2023-07-31T11:43:31;1.70;;;0.80;;
75550;SDS011;65071;53.082;18.218;2023-07-31T11:45:58;2.20;;;1.30;;
75550;SDS011;65071;53.082;18.218;2023-07-31T11:48:30;2.10;;;1.00;;
75550;SDS011;65071;53.082;18.218;2023-07-31T11:51:00;2.90;;;1.00;;
75550;SDS011;65071;53.082;18.218;2023-07-31T11:56:14;3.10;;;1.30;;
75550;SDS011;65071;53.082;18.218;2023-07-31T11:58:45;2.20;;;1.10;;
75550;SDS011;65071;53.082;18.218;2023-07-31T12:01:14;2.40;;;1.00;;
75550;SDS011;65071;53.082;18.218;2023-07-31T12:03:44;1.80;;;1.10;;
75550;SDS011;65071;53.082;18.218;2023-07-31T12:06:12;2.60;;;1.00;;
75550;SDS011;65071;53.082;18.218;2023-07-31T12:08:39;4.10;;;1.40;;
75550;SDS011;65071;53.082;18.218;2023-07-31T12:11:09;2.70;;;1.50;;
75550;SDS011;65071;53.082;18.218;2023-07-31T12:13:35;3.00;;;1.40;;
75550;SDS011;65071;53.082;18.218;2023-07-31T12:16:03;3.40;;;1.20;;
75550;SDS011;65071;53.082;18.218;2023-07-31T12:18:34;2.50;;;1.10;;
75550;SDS011;65071;53.082;18.218;2023-07-31T12:21:04;4.10;;;1.60;;
75550;SDS011;65071;53.082;18.218;2023-07-31T12:23:33;3.60;;;1.10;;
75550;SDS011;65071;53.082;18.218;2023-07-31T12:28:48;1.80;;;1.00;;
75550;SDS011;65071;53.082;18.218;2023-07-31T12:31:20;1.60;;;0.90;;
75550;SDS011;65071;53.082;18.218;2023-07-31T12:33:51;1.70;;;1.00;;
75550;SDS011;65071;53.082;18.218;2023-07-31T12:36:20;2.30;;;1.10;;
75550;SDS011;65071;53.082;18.218;2023-07-31T12:38:49;1.70;;;0.80;;
75550;SDS011;65071;53.082;18.218;2023-07-31T12:41:17;2.10;;;1.00;;
75550;SDS011;65071;53.082;18.218;2023-07-31T12:43:44;2.30;;;1.20;;
75550;SDS011;65071;53.082;18.218;2023-07-31T12:46:11;2.00;;;0.90;;
75550;SDS011;65071;53.082;18.218;2023-07-31T12:48:39;1.70;;;0.90;;
75550;SDS011;65071;53.082;18.218;2023-07-31T12:51:06;0.80;;;0.70;;
75550;SDS011;65071;53.082;18.218;2023-07-31T12:53:33;1.50;;;0.80;;
75550;SDS011;65071;53.082;18.218;2023-07-31T12:56:00;1.30;;;0.90;;
75550;SDS011;65071;53.082;18.218;2023-07-31T12:58:28;1.20;;;0.80;;
75550;SDS011;65071;53.082;18.218;2023-07-31T13:00:55;3.10;;;0.80;;
75550;SDS011;65071;53.082;18.218;2023-07-31T13:03:24;3.10;;;1.10;;
75550;SDS011;65071;53.082;18.218;2023-07-31T13:05:51;1.00;;;0.80;;
75550;SDS011;65071;53.082;18.218;2023-07-31T13:08:18;2.30;;;1.00;;
75550;SDS011;65071;53.082;18.218;2023-07-31T13:10:45;1.50;;;1.10;;
75550;SDS011;65071;53.082;18.218;2023-07-31T13:13:11;2.60;;;0.90;;
75550;SDS011;65071;53.082;18.218;2023-07-31T13:15:38;1.50;;;0.90;;
75550;SDS011;65071;53.082;18.218;2023-07-31T13:18:04;2.60;;;1.10;;
75550;SDS011;65071;53.082;18.218;2023-07-31T13:20:31;1.90;;;1.00;;
75550;SDS011;65071;53.082;18.218;2023-07-31T13:22:58;2.70;;;1.00;;
75550;SDS011;65071;53.082;18.218;2023-07-31T13:25:24;1.50;;;0.90;;
75550;SDS011;65071;53.082;18.218;2023-07-31T13:27:51;4.80;;;1.10;;
75550;SDS011;65071;53.082;18.218;2023-07-31T13:30:17;1.10;;;0.90;;
75550;SDS011;65071;53.082;18.218;2023-07-31T13:32:44;2.40;;;1.10;;
75550;SDS011;65071;53.082;18.218;2023-07-31T13:35:11;1.20;;;1.00;;
75550;SDS011;65071;53.082;18.218;2023-07-31T13:37:38;2.10;;;1.00;;
75550;SDS011;65071;53.082;18.218;2023-07-31T13:40:05;2.70;;;1.10;;
75550;SDS011;65071;53.082;18.218;2023-07-31T13:42:32;3.50;;;1.20;;
75550;SDS011;65071;53.082;18.218;2023-07-31T13:44:59;3.00;;;1.30;;
75550;SDS011;65071;53.082;18.218;2023-07-31T13:47:26;1.80;;;1.20;;
75550;SDS011;65071;53.082;18.218;2023-07-31T13:49:53;2.40;;;1.00;;
75550;SDS011;65071;53.082;18.218;2023-07-31T13:52:19;1.90;;;1.10;;
75550;SDS011;65071;53.082;18.218;2023-07-31T13:54:46;3.10;;;1.30;;
75550;SDS011;65071;53.082;18.218;2023-07-31T13:57:12;2.10;;;1.20;;
75550;SDS011;65071;53.082;18.218;2023-07-31T13:59:39;1.70;;;1.20;;
75550;SDS011;65071;53.082;18.218;2023-07-31T14:02:06;2.70;;;1.20;;
75550;SDS011;65071;53.082;18.218;2023-07-31T14:04:32;2.00;;;1.00;;
75550;SDS011;65071;53.082;18.218;2023-07-31T14:06:59;2.10;;;1.10;;
75550;SDS011;65071;53.082;18.218;2023-07-31T14:09:25;2.20;;;1.10;;
75550;SDS011;65071;53.082;18.218;2023-07-31T14:11:52;1.40;;;0.90;;
75550;SDS011;65071;53.082;18.218;2023-07-31T14:14:19;1.50;;;1.10;;
75550;SDS011;65071;53.082;18.218;2023-07-31T14:16:46;1.90;;;1.30;;
75550;SDS011;65071;53.082;18.218;2023-07-31T14:19:12;3.20;;;1.10;;
75550;SDS011;65071;53.082;18.218;2023-07-31T14:21:39;2.40;;;0.90;;
75550;SDS011;65071;53.082;18.218;2023-07-31T14:24:05;1.50;;;1.00;;
75550;SDS011;65071;53.082;18.218;2023-07-31T14:26:32;2.40;;;1.10;;
75550;SDS011;65071;53.082;18.218;2023-07-31T14:28:58;2.40;;;1.00;;
75550;SDS011;65071;53.082;18.218;2023-07-31T14:31:25;1.10;;;0.80;;
75550;SDS011;65071;53.082;18.218;2023-07-31T14:33:52;1.00;;;0.90;;
75550;SDS011;65071;53.082;18.218;2023-07-31T14:36:18;1.10;;;0.80;;
75550;SDS011;65071;53.082;18.218;2023-07-31T14:38:45;1.80;;;0.90;;
75550;SDS011;65071;53.082;18.218;2023-07-31T14:41:11;1.00;;;0.90;;
75550;SDS011;65071;53.082;18.218;2023-07-31T14:43:38;0.90;;;0.90;;
75550;SDS011;65071;53.082;18.218;2023-07-31T14:46:05;0.90;;;0.80;;
75550;SDS011;65071;53.082;18.218;2023-07-31T14:48:31;1.80;;;0.90;;
75550;SDS011;65071;53.082;18.218;2023-07-31T14:50:58;1.90;;;1.00;;